Time;durP1;ratioP1;P1;durP2;ratioP2;P2;SDS_P1;SDS_P2;PMS_P1;PMS_P2;Temp;Humidity;BMP_temperature;BMP_pressure;BME280_temperature;BME280_humidity;BME280_pressure;Samples;Min_cycle;Max_cycle;Signal;HPM_P1;HPM_P2
2023/01/27 00:00:30;;;;;;;26.60;15.00;;;;;;;-0.48;100.00;101520.90;105529;1259;59544;-49
2023/01/27 00:02:58;;;;;;;25.00;14.80;;;;;;;-0.48;100.00;101521.27;104897;1260;71177;-47
2023/01/27 00:05:26;;;;;;;24.60;14.90;;;;;;;-0.48;100.00;101523.73;104635;1263;67855;-46
2023/01/27 00:07:57;;;;;;;24.20;14.30;;;;;;;-0.49;100.00;101522.66;104868;1260;72796;-46
2023/01/27 00:10:25;;;;;;;31.70;15.70;;;;;;;-0.52;100.00;101527.36;105314;1263;59640;-48
2023/01/27 00:15:41;;;;;;;26.40;14.10;;;;;;;-0.57;100.00;101532.34;104635;1260;74006;-49
2023/01/27 00:18:09;;;;;;;24.60;13.90;;;;;;;-0.59;100.00;101520.27;104696;1260;68162;-48
2023/01/27 00:26:14;;;;;;;23.80;13.10;;;;;;;-0.67;100.00;101521.48;104938;1260;60522;-48
2023/01/27 00:28:42;;;;;;;30.60;13.70;;;;;;;-0.68;100.00;101507.20;108782;1260;72366;-46
2023/01/27 00:34:07;;;;;;;17.70;10.20;;;;;;;-0.66;100.00;101507.58;105544;1263;70223;-46
2023/01/27 00:36:37;;;;;;;20.50;11.90;;;;;;;-0.65;100.00;101503.04;108750;1260;60657;-45
2023/01/27 00:39:05;;;;;;;20.00;11.70;;;;;;;-0.64;100.00;101496.89;108762;1260;60929;-48
2023/01/27 00:41:34;;;;;;;17.10;11.20;;;;;;;-0.61;100.00;101499.78;108723;1260;73253;-47
2023/01/27 00:44:04;;;;;;;18.60;10.70;;;;;;;-0.59;100.00;101498.05;108742;1260;67099;-45
2023/01/27 00:46:34;;;;;;;21.80;12.00;;;;;;;-0.59;100.00;101495.95;107130;1263;71807;-47
2023/01/27 00:49:02;;;;;;;21.70;12.00;;;;;;;-0.59;100.00;101494.90;108782;1260;59872;-48
2023/01/27 00:51:30;;;;;;;20.40;12.80;;;;;;;-0.59;100.00;101487.66;108788;1260;59163;-47
2023/01/27 00:53:58;;;;;;;24.90;13.70;;;;;;;-0.60;100.00;101483.95;108693;1260;72529;-48
2023/01/27 00:56:27;;;;;;;22.30;12.60;;;;;;;-0.61;100.00;101484.11;108849;1258;67276;-47
2023/01/27 00:58:55;;;;;;;20.50;12.50;;;;;;;-0.63;100.00;101488.11;108819;1260;72808;-47
2023/01/27 01:01:23;;;;;;;20.70;11.50;;;;;;;-0.65;100.00;101484.15;108812;1259;59980;-48
2023/01/27 01:03:52;;;;;;;21.60;10.30;;;;;;;-0.68;100.00;101477.21;106029;1263;60419;-45
2023/01/27 01:06:21;;;;;;;21.10;11.70;;;;;;;-0.69;100.00;101474.92;108747;1259;73596;-47
2023/01/27 01:08:53;;;;;;;17.90;10.50;;;;;;;-0.69;100.00;101470.34;108794;1259;66073;-47
2023/01/27 01:11:22;;;;;;;19.70;10.00;;;;;;;-0.69;100.00;101466.64;106565;1260;70575;-49
2023/01/27 01:13:50;;;;;;;20.30;10.60;;;;;;;-0.67;100.00;101463.48;108959;1256;63302;-45
2023/01/27 01:16:21;;;;;;;14.90;8.90;;;;;;;-0.65;100.00;101461.77;105555;1257;60430;-46
2023/01/27 01:18:49;;;;;;;17.80;10.90;;;;;;;-0.64;100.00;101461.64;105349;1257;72384;-47
2023/01/27 01:21:17;;;;;;;19.80;11.50;;;;;;;-0.63;100.00;101452.30;105089;1260;65987;-45
2023/01/27 01:23:45;;;;;;;17.70;11.20;;;;;;;-0.63;100.00;101451.95;105658;1257;71548;-49
2023/01/27 01:26:14;;;;;;;19.70;10.90;;;;;;;-0.63;100.00;101450.02;105726;1263;60180;-46
2023/01/27 01:28:43;;;;;;;17.20;10.90;;;;;;;-0.66;100.00;101448.00;105328;1263;59740;-46
2023/01/27 01:31:15;;;;;;;15.70;10.90;;;;;;;-0.67;100.00;101449.20;106112;1260;71790;-45
2023/01/27 01:33:43;;;;;;;19.70;11.80;;;;;;;-0.70;100.00;101442.80;106112;1263;68312;-48
2023/01/27 01:36:13;;;;;;;21.50;11.70;;;;;;;-0.71;100.00;101436.59;105228;1257;70603;-44
2023/01/27 01:38:41;;;;;;;21.20;11.40;;;;;;;-0.73;100.00;101438.30;104859;1260;59638;-44
2023/01/27 01:41:15;;;;;;;16.00;9.80;;;;;;;-0.76;100.00;101435.07;104597;1263;59708;-47
2023/01/27 01:43:43;;;;;;;16.60;9.40;;;;;;;-0.80;100.00;101430.40;105435;1257;72978;-45
2023/01/27 01:46:12;;;;;;;16.60;10.50;;;;;;;-0.83;100.00;101424.66;104944;1257;65847;-47
2023/01/27 01:48:55;;;;;;;19.00;10.50;;;;;;;-0.88;100.00;101415.23;105033;1257;71615;-46
2023/01/27 01:51:42;;;;;;;13.10;8.60;;;;;;;-0.90;100.00;101422.21;105128;1260;61339;-48
2023/01/27 01:54:16;;;;;;;17.90;9.60;;;;;;;-0.91;100.00;101425.02;104835;1257;60897;-49
2023/01/27 01:56:57;;;;;;;14.20;9.40;;;;;;;-0.91;100.00;101420.25;104752;1262;71957;-48
2023/01/27 01:59:37;;;;;;;14.60;9.40;;;;;;;-0.91;100.00;101425.36;106530;1257;67385;-45
2023/01/27 02:02:07;;;;;;;16.50;8.60;;;;;;;-0.89;100.00;101425.42;104957;1257;72785;-44
2023/01/27 02:04:39;;;;;;;15.50;10.40;;;;;;;-0.88;100.00;101412.41;105516;1257;59789;-46
2023/01/27 02:07:18;;;;;;;20.40;11.50;;;;;;;-0.88;100.00;101414.17;104766;1257;59784;-48
2023/01/27 02:09:47;;;;;;;17.40;10.30;;;;;;;-0.88;100.00;101414.33;105156;1257;74656;-46
2023/01/27 02:12:15;;;;;;;19.20;11.60;;;;;;;-0.91;100.00;101403.34;104844;1260;66965;-48
2023/01/27 02:14:45;;;;;;;20.10;10.80;;;;;;;-0.94;100.00;101399.92;104905;1260;72781;-47
2023/01/27 02:17:13;;;;;;;19.00;11.60;;;;;;;-0.96;100.00;101401.27;105017;1260;61474;-49
2023/01/27 02:19:46;;;;;;;18.00;11.90;;;;;;;-0.99;100.00;101393.27;105164;1258;59590;-47
2023/01/27 02:22:29;;;;;;;18.50;10.00;;;;;;;-1.01;100.00;101396.91;104862;1256;74603;-49
2023/01/27 02:26:35;;;;;;;19.40;10.80;;;;;;;-1.03;100.00;101396.52;101654;1293;599690;-48
2023/01/27 02:29:06;;;;;;;18.20;10.70;;;;;;;-1.05;100.00;101497.27;108257;1266;61520;-50
2023/01/27 02:31:37;;;;;;;16.10;9.70;;;;;;;-1.04;100.00;101477.54;108433;1266;58111;-49
2023/01/27 02:34:13;;;;;;;18.10;10.10;;;;;;;-1.03;100.00;101461.91;108339;1267;72359;-50
2023/01/27 02:36:47;;;;;;;19.10;12.10;;;;;;;-1.00;100.00;101461.60;108340;1267;68408;-50
2023/01/27 02:39:16;;;;;;;23.70;12.50;;;;;;;-0.98;100.00;101462.02;108159;1264;139630;-50
2023/01/27 02:41:46;;;;;;;21.50;12.60;;;;;;;-0.97;100.00;101457.65;108609;1263;57060;-48
2023/01/27 02:44:14;;;;;;;21.60;11.80;;;;;;;-0.97;100.00;101457.82;108461;1264;59399;-50
2023/01/27 02:46:43;;;;;;;20.40;11.90;;;;;;;-0.98;100.00;101445.64;108270;1264;70416;-47
2023/01/27 02:49:12;;;;;;;18.20;11.80;;;;;;;-0.99;100.00;101438.92;105656;1267;67190;-47
2023/01/27 02:51:41;;;;;;;19.40;11.60;;;;;;;-1.00;100.00;101436.21;104775;1269;70914;-46
2023/01/27 02:54:10;;;;;;;18.80;11.80;;;;;;;-1.02;100.00;101431.95;107628;1259;61101;-46
2023/01/27 02:56:38;;;;;;;16.70;10.10;;;;;;;-1.03;100.00;101428.59;105465;1254;59943;-49
2023/01/27 02:59:06;;;;;;;17.40;11.00;;;;;;;-1.03;100.00;101428.93;107352;1257;71994;-48
2023/01/27 03:01:38;;;;;;;14.80;9.40;;;;;;;-1.02;100.00;101435.13;105674;1257;68221;-48
2023/01/27 03:04:07;;;;;;;17.00;10.00;;;;;;;-1.00;100.00;101431.13;105365;1256;70729;-49
2023/01/27 03:06:37;;;;;;;18.40;11.40;;;;;;;-0.98;100.00;101433.98;105292;1256;59818;-48
2023/01/27 03:09:05;;;;;;;16.50;10.80;;;;;;;-0.97;100.00;101427.67;105957;1260;59773;-46
2023/01/27 03:14:20;;;;;;;23.20;12.50;;;;;;;-0.98;100.00;101431.73;105462;1257;69258;-50
2023/01/27 03:19:35;;;;;;;18.80;11.90;;;;;;;-0.99;100.00;101419.35;105563;1256;60488;-50
2023/01/27 03:22:03;;;;;;;21.80;12.50;;;;;;;-1.00;100.00;101401.87;106057;1258;59641;-48
2023/01/27 03:24:35;;;;;;;18.00;11.80;;;;;;;-1.03;100.00;101404.11;107176;1254;72116;-48
2023/01/27 03:27:06;;;;;;;20.80;12.10;;;;;;;-1.06;100.00;101402.79;105159;1260;68248;-47
2023/01/27 03:30:03;;;;;;;19.10;10.50;;;;;;;-1.09;100.00;101412.02;105324;1260;73425;-48
2023/01/27 03:32:35;;;;;;;19.70;11.00;;;;;;;-1.11;100.00;101395.63;105313;1255;62325;-48
2023/01/27 03:35:37;;;;;;;19.70;9.60;;;;;;;-1.11;100.00;101403.02;105427;1259;59923;-48
2023/01/27 03:46:34;;;;;;;17.70;10.90;;;;;;;-1.14;100.00;101392.38;105402;1258;59595;-46
2023/01/27 03:49:03;;;;;;;21.00;12.70;;;;;;;-1.16;100.00;101373.80;105431;1260;59955;-46
2023/01/27 03:51:31;;;;;;;21.80;13.70;;;;;;;-1.19;100.00;101370.39;105501;1258;72569;-48
2023/01/27 03:53:59;;;;;;;25.20;14.10;;;;;;;-1.22;100.00;101368.23;105423;1260;68151;-47
2023/01/27 03:56:28;;;;;;;24.50;13.50;;;;;;;-1.26;100.00;101362.11;105492;1254;71826;-48
2023/01/27 03:58:56;;;;;;;23.90;14.30;;;;;;;-1.30;100.00;101357.64;105470;1259;61627;-47
2023/01/27 04:01:24;;;;;;;20.10;12.40;;;;;;;-1.35;100.00;101352.89;105799;1260;60729;-46
2023/01/27 04:06:53;;;;;;;21.90;12.80;;;;;;;-1.44;100.00;101357.25;105224;1254;66912;-46
2023/01/27 04:09:25;;;;;;;18.30;11.20;;;;;;;-1.46;100.00;101357.92;105611;1259;72689;-47
2023/01/27 04:11:54;;;;;;;17.70;10.80;;;;;;;-1.45;100.00;101353.71;105379;1258;59647;-47
2023/01/27 04:14:27;;;;;;;18.80;11.30;;;;;;;-1.45;100.00;101351.79;105422;1254;60432;-48
2023/01/27 04:17:00;;;;;;;16.60;9.90;;;;;;;-1.43;100.00;101351.29;106847;1259;71698;-47
2023/01/27 04:19:29;;;;;;;17.50;11.30;;;;;;;-1.43;100.00;101355.16;105285;1259;66242;-47
2023/01/27 04:21:57;;;;;;;17.80;10.80;;;;;;;-1.43;100.00;101351.64;105414;1257;72592;-46
2023/01/27 04:24:26;;;;;;;17.00;10.10;;;;;;;-1.44;100.00;101354.44;105365;1260;59741;-47
2023/01/27 04:26:59;;;;;;;20.50;12.20;;;;;;;-1.44;100.00;101353.36;106151;1257;61264;-48
2023/01/27 04:29:29;;;;;;;20.20;11.40;;;;;;;-1.45;100.00;101353.38;105263;1254;73253;-48
2023/01/27 04:31:57;;;;;;;19.70;11.20;;;;;;;-1.46;100.00;101351.40;105500;1254;67166;-46
2023/01/27 04:34:26;;;;;;;19.10;10.50;;;;;;;-1.48;100.00;101352.94;106153;1254;71337;-46
2023/01/27 04:36:54;;;;;;;17.40;10.80;;;;;;;-1.50;100.00;101354.27;105342;1254;60280;-46
2023/01/27 04:39:23;;;;;;;16.60;10.30;;;;;;;-1.55;100.00;101356.64;105387;1257;60998;-47
2023/01/27 04:41:50;;;;;;;18.10;10.20;;;;;;;-1.59;100.00;101351.58;106793;1254;73264;-46
2023/01/27 04:44:21;;;;;;;14.80;9.60;;;;;;;-1.62;100.00;101351.16;105476;1254;69726;-46
2023/01/27 04:46:49;;;;;;;18.70;9.40;;;;;;;-1.63;100.00;101355.02;106818;1256;71641;-48
2023/01/27 04:49:17;;;;;;;14.50;8.80;;;;;;;-1.64;100.00;101346.89;107203;1253;60476;-47
2023/01/27 04:51:45;;;;;;;15.00;9.60;;;;;;;-1.64;100.00;101343.36;105448;1256;60438;-48
2023/01/27 04:54:15;;;;;;;13.80;8.40;;;;;;;-1.65;100.00;101338.58;105731;1257;72364;-47
2023/01/27 04:56:57;;;;;;;15.70;9.50;;;;;;;-1.65;100.00;101334.88;105399;1254;67426;-44
2023/01/27 04:59:25;;;;;;;19.60;11.60;;;;;;;-1.64;100.00;101345.47;105623;1254;71653;-45
2023/01/27 05:01:53;;;;;;;19.40;13.30;;;;;;;-1.64;100.00;101340.20;105438;1257;59615;-42
2023/01/27 05:04:24;;;;;;;18.80;11.50;;;;;;;-1.65;100.00;101337.02;109272;1253;61208;-46
2023/01/27 05:06:53;;;;;;;18.70;11.90;;;;;;;-1.66;100.00;101339.97;109275;1254;73026;-48
2023/01/27 05:09:21;;;;;;;19.70;12.00;;;;;;;-1.68;100.00;101338.84;109259;1254;65849;-45
2023/01/27 05:11:49;;;;;;;17.10;10.60;;;;;;;-1.70;100.00;101343.38;107331;1254;73569;-45
2023/01/27 05:14:17;;;;;;;20.00;11.00;;;;;;;-1.72;100.00;101339.64;107353;1257;60151;-46
2023/01/27 05:16:45;;;;;;;31.60;18.40;;;;;;;-1.72;100.00;101339.81;109163;1253;59789;-47
2023/01/27 05:19:13;;;;;;;27.60;14.60;;;;;;;-1.73;100.00;101339.45;109286;1254;70632;-45
2023/01/27 05:21:42;;;;;;;21.10;12.00;;;;;;;-1.72;100.00;101337.52;109250;1254;68183;-45
2023/01/27 05:24:10;;;;;;;18.80;11.30;;;;;;;-1.70;100.00;101332.45;107073;1256;73360;-47
2023/01/27 05:26:40;;;;;;;16.60;10.00;;;;;;;-1.69;100.00;101330.54;109258;1252;59571;-47
2023/01/27 05:29:09;;;;;;;18.80;12.10;;;;;;;-1.68;100.00;101327.58;109288;1253;59309;-46
2023/01/27 05:31:38;;;;;;;16.80;10.50;;;;;;;-1.68;100.00;101330.20;109196;1253;73035;-46
2023/01/27 05:34:07;;;;;;;21.70;12.90;;;;;;;-1.68;100.00;101332.52;105949;1254;68098;-47
2023/01/27 05:36:36;;;;;;;15.30;9.70;;;;;;;-1.69;100.00;101334.95;105490;1254;72045;-44
2023/01/27 05:39:04;;;;;;;18.40;11.40;;;;;;;-1.71;100.00;101331.40;105529;1257;59526;-45
2023/01/27 05:41:35;;;;;;;21.10;12.30;;;;;;;-1.73;100.00;101330.10;109196;1254;59727;-45
2023/01/27 05:44:04;;;;;;;19.50;12.60;;;;;;;-1.75;100.00;101327.21;109188;1254;73802;-45
2023/01/27 05:46:33;;;;;;;20.90;10.60;;;;;;;-1.77;100.00;101326.98;108779;1254;68055;-48
2023/01/27 05:49:04;;;;;;;18.10;10.20;;;;;;;-1.79;100.00;101326.95;108965;1254;72330;-45
2023/01/27 05:51:34;;;;;;;19.00;10.50;;;;;;;-1.80;100.00;101330.11;109028;1253;61009;-49
2023/01/27 05:54:02;;;;;;;19.80;10.40;;;;;;;-1.79;100.00;101330.29;105531;1255;61566;-48
2023/01/27 05:56:31;;;;;;;23.30;11.10;;;;;;;-1.78;100.00;101326.25;105485;1254;74420;-47
2023/01/27 06:01:44;;;;;;;19.50;11.20;;;;;;;-1.74;100.00;101333.59;102236;1295;601160;-47
2023/01/27 06:04:12;;;;;;;20.10;12.10;;;;;;;-1.74;100.00;101409.98;105950;1265;59303;-49
2023/01/27 06:06:43;;;;;;;28.70;14.50;;;;;;;-1.72;100.00;101403.17;105131;1261;59863;-45
2023/01/27 06:09:12;;;;;;;27.60;15.80;;;;;;;-1.71;100.00;101393.88;104525;1261;72038;-46
2023/01/27 06:11:40;;;;;;;29.20;15.70;;;;;;;-1.71;100.00;101382.42;105982;1264;67840;-44
2023/01/27 06:14:10;;;;;;;24.40;13.20;;;;;;;-1.73;100.00;101379.03;104618;1265;71528;-48
2023/01/27 06:16:38;;;;;;;22.90;13.10;;;;;;;-1.74;100.00;101376.70;104590;1264;60068;-45
2023/01/27 06:19:07;;;;;;;21.20;12.30;;;;;;;-1.77;100.00;101376.63;104607;1260;60571;-45
2023/01/27 06:21:35;;;;;;;20.20;11.80;;;;;;;-1.79;100.00;101370.77;105094;1262;71956;-44
2023/01/27 06:24:04;;;;;;;20.80;10.80;;;;;;;-1.81;100.00;101369.14;108198;1262;67058;-47
2023/01/27 06:26:32;;;;;;;19.40;10.40;;;;;;;-1.83;100.00;101365.55;105091;1260;72141;-46
2023/01/27 06:29:00;;;;;;;18.10;9.40;;;;;;;-1.84;100.00;101364.45;104671;1261;60147;-45
2023/01/27 06:31:28;;;;;;;15.50;8.60;;;;;;;-1.84;100.00;101359.89;105922;1260;59945;-45
2023/01/27 06:33:56;;;;;;;12.80;7.70;;;;;;;-1.81;100.00;101365.25;105349;1258;73179;-45
2023/01/27 06:36:24;;;;;;;16.70;9.90;;;;;;;-1.78;100.00;101363.75;104885;1263;67450;-46
2023/01/27 06:38:53;;;;;;;20.60;10.90;;;;;;;-1.75;100.00;101363.29;105211;1258;73912;-44
2023/01/27 06:41:21;;;;;;;17.00;9.60;;;;;;;-1.73;100.00;101365.64;108586;1259;59607;-47
2023/01/27 06:43:51;;;;;;;17.10;10.20;;;;;;;-1.72;100.00;101360.05;105300;1259;60109;-49
2023/01/27 06:46:19;;;;;;;19.20;10.20;;;;;;;-1.71;100.00;101355.50;105163;1262;73473;-46
2023/01/27 06:48:47;;;;;;;18.70;10.30;;;;;;;-1.71;100.00;101354.98;105263;1263;66929;-46
2023/01/27 06:51:18;;;;;;;16.60;9.60;;;;;;;-1.71;100.00;101356.91;104951;1261;74021;-45
2023/01/27 06:53:45;;;;;;;18.30;11.90;;;;;;;-1.74;100.00;101352.08;105113;1263;62310;-46
2023/01/27 06:56:13;;;;;;;17.00;10.70;;;;;;;-1.76;100.00;101350.96;106472;1259;60415;-49
2023/01/27 06:58:44;;;;;;;16.00;10.80;;;;;;;-1.76;100.00;101350.97;105963;1257;73624;-45
2023/01/27 07:01:12;;;;;;;18.90;10.40;;;;;;;-1.74;100.00;101349.62;105750;1255;68581;-47
2023/01/27 07:03:40;;;;;;;19.10;10.60;;;;;;;-1.71;100.00;101348.64;105701;1258;72135;-43
2023/01/27 07:06:11;;;;;;;17.00;9.70;;;;;;;-1.67;100.00;101349.96;105889;1259;60359;-47
2023/01/27 07:08:39;;;;;;;19.10;10.50;;;;;;;-1.64;100.00;101353.39;109077;1254;60241;-49
2023/01/27 07:11:07;;;;;;;21.50;11.20;;;;;;;-1.61;100.00;101350.13;106220;1253;72822;-45
2023/01/27 07:13:35;;;;;;;18.50;10.60;;;;;;;-1.58;100.00;101353.55;106648;1257;68099;-44
2023/01/27 07:16:03;;;;;;;26.30;14.00;;;;;;;-1.57;100.00;101346.89;105467;1257;72629;-48
2023/01/27 07:18:32;;;;;;;25.80;13.40;;;;;;;-1.56;100.00;101346.93;105889;1259;59896;-47
2023/01/27 07:21:03;;;;;;;23.30;12.90;;;;;;;-1.55;100.00;101343.97;105510;1254;60348;-47
2023/01/27 07:23:31;;;;;;;26.20;13.80;;;;;;;-1.54;100.00;101351.02;106337;1258;72111;-46
2023/01/27 07:26:02;;;;;;;25.80;15.30;;;;;;;-1.55;100.00;101348.53;105302;1259;66986;-47
2023/01/27 07:28:42;;;;;;;25.00;15.50;;;;;;;-1.54;100.00;101361.41;105206;1254;71387;-47
2023/01/27 07:31:10;;;;;;;26.70;14.60;;;;;;;-1.54;100.00;101353.48;104970;1255;62286;-47
2023/01/27 07:33:40;;;;;;;24.30;14.00;;;;;;;-1.55;100.00;101348.02;105181;1254;59787;-48
2023/01/27 07:36:08;;;;;;;26.10;14.00;;;;;;;-1.55;100.00;101347.67;105394;1258;72373;-46
2023/01/27 07:38:37;;;;;;;18.50;11.20;;;;;;;-1.53;100.00;101348.04;106319;1254;66838;-47
2023/01/27 07:41:06;;;;;;;22.30;12.30;;;;;;;-1.52;100.00;101348.44;105190;1257;71779;-48
2023/01/27 07:43:34;;;;;;;23.20;13.10;;;;;;;-1.49;100.00;101347.63;109188;1254;61107;-48
2023/01/27 07:46:07;;;;;;;25.50;13.80;;;;;;;-1.48;100.00;101350.64;109106;1254;60945;-50
2023/01/27 07:48:35;;;;;;;22.70;13.70;;;;;;;-1.46;100.00;101345.60;109170;1254;70987;-49
2023/01/27 07:51:03;;;;;;;22.50;12.40;;;;;;;-1.43;100.00;101340.73;109269;1257;66821;-50
2023/01/27 07:53:30;;;;;;;22.60;12.50;;;;;;;-1.39;100.00;101342.42;109177;1254;73629;-49
2023/01/27 07:55:59;;;;;;;25.50;13.70;;;;;;;-1.40;100.00;101330.03;109084;1257;57631;-48
2023/01/27 07:58:30;;;;;;;24.40;13.70;;;;;;;-1.42;100.00;101335.44;109170;1253;59459;-48
2023/01/27 08:00:58;;;;;;;25.20;13.10;;;;;;;-1.41;100.00;101336.39;109268;1254;72419;-49
2023/01/27 08:03:26;;;;;;;24.20;13.90;;;;;;;-1.41;100.00;101334.80;109256;1254;66949;-46
2023/01/27 08:05:54;;;;;;;27.90;14.80;;;;;;;-1.41;100.00;101327.30;109262;1254;72026;-46
2023/01/27 08:08:22;;;;;;;22.40;12.50;;;;;;;-1.41;100.00;101330.39;108947;1259;59652;-46
2023/01/27 08:10:50;;;;;;;21.90;12.50;;;;;;;-1.40;100.00;101333.77;109037;1258;59887;-47
2023/01/27 08:13:18;;;;;;;22.80;13.00;;;;;;;-1.43;100.00;101326.88;109177;1256;74193;-46
2023/01/27 08:15:46;;;;;;;18.60;10.80;;;;;;;-1.43;100.00;101319.75;109213;1254;65604;-48
2023/01/27 08:18:15;;;;;;;20.60;12.10;;;;;;;-1.41;100.00;101317.44;109182;1258;72915;-46
2023/01/27 08:20:43;;;;;;;24.30;12.40;;;;;;;-77.36;39.40;40530.93;107441;1259;1002386;-46
2023/01/27 08:23:12;;;;;;;23.80;12.10;;;;;;;-128.00;-1.00;-1.00;106538;1254;1011485;-50
2023/01/27 08:25:40;;;;;;;21.60;12.40;;;;;;;-128.00;-1.00;-1.00;106483;1254;1002477;-49
2023/01/27 08:28:08;;;;;;;23.50;14.10;;;;;;;-128.00;-1.00;-1.00;103628;1259;1002883;-49
2023/01/27 08:30:38;;;;;;;23.90;14.70;;;;;;;-128.00;-1.00;-1.00;103357;1256;1012549;-48
2023/01/27 08:33:06;;;;;;;30.30;16.50;;;;;;;-128.00;-1.00;-1.00;103697;1260;1010782;-47
2023/01/27 08:35:34;;;;;;;35.60;17.20;;;;;;;-128.00;-1.00;-1.00;102729;1258;1002649;-47
2023/01/27 08:38:02;;;;;;;32.40;18.90;;;;;;;-128.00;-1.00;-1.00;103271;1257;1013080;-48
2023/01/27 08:40:31;;;;;;;31.10;18.00;;;;;;;-128.00;-1.00;-1.00;103642;1259;1012935;-47
2023/01/27 08:43:00;;;;;;;28.50;17.30;;;;;;;-128.00;-1.00;-1.00;103195;1259;1002229;-47
2023/01/27 08:45:32;;;;;;;30.10;17.30;;;;;;;-128.00;-1.00;-1.00;103127;1259;1011370;-47
2023/01/27 08:48:00;;;;;;;30.10;16.30;;;;;;;-128.00;-1.00;-1.00;102904;1257;1011334;-48
2023/01/27 08:50:31;;;;;;;26.40;14.90;;;;;;;-128.00;-1.00;-1.00;102853;1254;1012193;-44
2023/01/27 08:53:00;;;;;;;25.20;14.90;;;;;;;-128.00;-1.00;-1.00;102813;1257;1012763;-47
2023/01/27 08:55:31;;;;;;;28.40;16.30;;;;;;;-128.00;-1.00;-1.00;104261;1256;1014053;-48
2023/01/27 08:57:59;;;;;;;25.10;16.00;;;;;;;-128.00;-1.00;-1.00;102820;1260;1010833;-49
2023/01/27 09:00:27;;;;;;;31.40;17.30;;;;;;;-128.00;-1.00;-1.00;102846;1257;1002955;-49
2023/01/27 09:02:55;;;;;;;28.70;16.60;;;;;;;-128.00;-1.00;-1.00;102557;1259;1005854;-48
2023/01/27 09:05:23;;;;;;;36.20;19.20;;;;;;;-128.00;-1.00;-1.00;102345;1258;1002461;-48
2023/01/27 09:07:51;;;;;;;35.90;18.50;;;;;;;-128.00;-1.00;-1.00;101981;1258;1013137;-49
2023/01/27 09:10:20;;;;;;;37.50;20.40;;;;;;;-128.00;-1.00;-1.00;102079;1254;1009752;-50
2023/01/27 09:12:48;;;;;;;35.40;20.70;;;;;;;-128.00;-1.00;-1.00;102837;1257;1011611;-46
2023/01/27 09:15:16;;;;;;;35.40;19.90;;;;;;;-128.00;-1.00;-1.00;103200;1257;1003726;-48
2023/01/27 09:17:46;;;;;;;36.60;21.10;;;;;;;-128.00;-1.00;-1.00;102798;1254;1003592;-51
2023/01/27 09:20:14;;;;;;;40.70;22.20;;;;;;;-128.00;-1.00;-1.00;102530;1259;1012417;-46
2023/01/27 09:22:42;;;;;;;35.30;19.70;;;;;;;-128.00;-1.00;-1.00;102527;1259;1010561;-47
2023/01/27 09:25:13;;;;;;;39.60;22.10;;;;;;;-128.00;-1.00;-1.00;102556;1259;1011391;-49
2023/01/27 09:27:44;;;;;;;36.00;21.80;;;;;;;-128.00;-1.00;-1.00;102365;1257;1012902;-48
2023/01/27 09:30:13;;;;;;;49.10;24.80;;;;;;;-128.00;-1.00;-1.00;102601;1260;1013313;-50
2023/01/27 09:32:42;;;;;;;46.80;26.00;;;;;;;-128.00;-1.00;-1.00;102821;1258;1013330;-46
2023/01/27 09:35:10;;;;;;;47.60;25.60;;;;;;;-128.00;-1.00;-1.00;103770;1260;1002714;-47
2023/01/27 09:37:44;;;;;;;44.40;25.10;;;;;;;-128.00;-1.00;-1.00;104563;1254;1012462;-50
2023/01/27 09:40:27;;;;;;;47.60;26.30;;;;;;;-128.00;-1.00;-1.00;101988;1260;1013970;-46
2023/01/27 09:42:59;;;;;;;45.50;27.00;;;;;;;-128.00;-1.00;-1.00;102606;1259;1012596;-47
2023/01/27 09:45:52;;;;;;;44.60;25.00;;;;;;;-128.00;-1.00;-1.00;102832;1256;1013233;-49
2023/01/27 09:48:31;;;;;;;54.30;28.90;;;;;;;-128.00;-1.00;-1.00;102954;1257;1010284;-47
2023/01/27 09:51:13;;;;;;;53.70;27.80;;;;;;;-128.00;-1.00;-1.00;102390;1257;1011917;-46
2023/01/27 09:54:09;;;;;;;54.90;27.00;;;;;;;-128.00;-1.00;-1.00;102897;1257;1012643;-48
2023/01/27 09:56:57;;;;;;;52.20;25.30;;;;;;;-128.00;-1.00;-1.00;102190;1254;1012490;-46
2023/01/27 09:59:42;;;;;;;55.40;26.80;;;;;;;-128.00;-1.00;-1.00;102492;1257;1012905;-50
2023/01/27 10:02:37;;;;;;;47.90;25.20;;;;;;;-128.00;-1.00;-1.00;103791;1257;1010251;-49
2023/01/27 10:05:20;;;;;;;53.50;25.50;;;;;;;-128.00;-1.00;-1.00;102283;1257;1010080;-49
2023/01/27 10:07:58;;;;;;;47.40;24.60;;;;;;;-128.00;-1.00;-1.00;102686;1258;1013470;-51
2023/01/27 10:10:47;;;;;;;78.90;36.90;;;;;;;-128.00;-1.00;-1.00;102765;1254;1013492;-49
2023/01/27 10:13:27;;;;;;;56.60;25.30;;;;;;;-128.00;-1.00;-1.00;105454;1254;1012628;-50
2023/01/27 10:16:34;;;;;;;91.70;43.60;;;;;;;-128.00;-1.00;-1.00;103239;1257;1009710;-47
2023/01/27 10:19:42;;;;;;;64.70;30.90;;;;;;;-128.00;-1.00;-1.00;102830;1260;1011371;-47
2023/01/27 10:22:20;;;;;;;55.30;26.20;;;;;;;-128.00;-1.00;-1.00;105785;1255;1012709;-50
2023/01/27 10:25:08;;;;;;;46.00;22.40;;;;;;;-128.00;-1.00;-1.00;106348;1260;1012353;-50
2023/01/27 10:27:36;;;;;;;48.60;22.00;;;;;;;-128.00;-1.00;-1.00;106435;1254;1012080;-50
2023/01/27 10:30:23;;;;;;;52.10;23.50;;;;;;;-128.00;-1.00;-1.00;106241;1253;1010742;-50
2023/01/27 10:32:54;;;;;;;54.90;23.00;;;;;;;-128.00;-1.00;-1.00;106419;1254;1010759;-49
2023/01/27 10:35:27;;;;;;;47.90;22.70;;;;;;;-128.00;-1.00;-1.00;105206;1254;1013313;-49
2023/01/27 10:38:34;;;;;;;44.60;20.40;;;;;;;-128.00;-1.00;-1.00;102611;1254;1012678;-49
2023/01/27 10:41:21;;;;;;;48.80;22.20;;;;;;;-128.00;-1.00;-1.00;102386;1257;1013500;-49
2023/01/27 10:44:05;;;;;;;40.30;18.50;;;;;;;-128.00;-1.00;-1.00;102352;1254;1012619;-50
2023/01/27 10:46:50;;;;;;;38.00;17.50;;;;;;;-128.00;-1.00;-1.00;102377;1253;1011245;-50
2023/01/27 10:49:24;;;;;;;28.20;12.90;;;;;;;-128.00;-1.00;-1.00;102550;1254;1015374;-50
2023/01/27 10:51:57;;;;;;;39.50;18.50;;;;;;;-128.00;-1.00;-1.00;102610;1254;1013024;-49
2023/01/27 10:54:27;;;;;;;41.70;19.40;;;;;;;-128.00;-1.00;-1.00;102938;1260;1012995;-50
2023/01/27 10:57:05;;;;;;;46.60;22.20;;;;;;;-128.00;-1.00;-1.00;103665;1258;1011203;-50
2023/01/27 10:59:46;;;;;;;44.30;21.60;;;;;;;-128.00;-1.00;-1.00;106334;1254;1011081;-51
2023/01/27 11:02:44;;;;;;;48.70;22.00;;;;;;;-128.00;-1.00;-1.00;106125;1254;1013078;-52
2023/01/27 11:05:17;;;;;;;44.60;19.90;;;;;;;-128.00;-1.00;-1.00;106460;1253;1013071;-51
2023/01/27 11:07:48;;;;;;;40.70;19.80;;;;;;;-128.00;-1.00;-1.00;102773;1255;1013492;-46
2023/01/27 11:10:17;;;;;;;37.90;18.80;;;;;;;-128.00;-1.00;-1.00;104941;1256;1009534;-51
2023/01/27 11:12:48;;;;;;;38.10;19.20;;;;;;;-128.00;-1.00;-1.00;102600;1257;1010611;-50
2023/01/27 11:15:24;;;;;;;41.20;18.80;;;;;;;-128.00;-1.00;-1.00;102576;1257;1013801;-51
2023/01/27 11:18:14;;;;;;;40.40;17.90;;;;;;;-128.00;-1.00;-1.00;104374;1261;1011738;-51
2023/01/27 11:20:44;;;;;;;41.20;17.60;;;;;;;-128.00;-1.00;-1.00;103376;1257;1013158;-49
2023/01/27 11:23:16;;;;;;;41.50;18.00;;;;;;;-128.00;-1.00;-1.00;103111;1254;1010419;-51
2023/01/27 11:26:02;;;;;;;37.40;17.50;;;;;;;-128.00;-1.00;-1.00;102906;1254;1011152;-51
2023/01/27 11:28:40;;;;;;;39.90;20.00;;;;;;;-128.00;-1.00;-1.00;102606;1257;1013502;-50
2023/01/27 11:31:33;;;;;;;45.70;21.50;;;;;;;-128.00;-1.00;-1.00;103411;1255;1012616;-50
2023/01/27 11:34:09;;;;;;;48.40;22.30;;;;;;;-128.00;-1.00;-1.00;103540;1254;1013126;-48
2023/01/27 11:36:37;;;;;;;45.50;23.40;;;;;;;-128.00;-1.00;-1.00;102824;1257;1009958;-51
2023/01/27 11:39:07;;;;;;;49.00;23.20;;;;;;;-128.00;-1.00;-1.00;102773;1254;1002612;-50
2023/01/27 11:41:45;;;;;;;47.60;24.20;;;;;;;-128.00;-1.00;-1.00;102862;1257;1013122;-49
2023/01/27 11:44:28;;;;;;;46.10;23.70;;;;;;;-128.00;-1.00;-1.00;103033;1260;1012793;-50
2023/01/27 11:46:56;;;;;;;48.20;25.20;;;;;;;-128.00;-1.00;-1.00;103000;1257;1013917;-51
2023/01/27 11:49:26;;;;;;;51.30;25.00;;;;;;;-128.00;-1.00;-1.00;103239;1254;1010669;-52